sensor_id;sensor_type;location;lat;lon;timestamp;pressure;altitude;pressure_sealevel;temperature;humidity
9784;BME280;4931;44.874;-1.092;2022-07-15T00:03:02;101630.25;;;23.33;100.00
9784;BME280;4931;44.874;-1.092;2022-07-15T00:07:48;101632.44;;;23.15;100.00
9784;BME280;4931;44.874;-1.092;2022-07-15T00:12:34;101628.53;;;23.07;100.00
9784;BME280;4931;44.874;-1.092;2022-07-15T00:17:23;101630.94;;;22.96;100.00
9784;BME280;4931;44.874;-1.092;2022-07-15T00:22:09;101635.94;;;22.91;100.00
9784;BME280;4931;44.874;-1.092;2022-07-15T00:26:55;101635.25;;;22.94;100.00
9784;BME280;4931;44.874;-1.092;2022-07-15T00:31:42;101627.53;;;22.91;100.00
9784;BME280;4931;44.874;-1.092;2022-07-15T00:36:31;101630.19;;;22.87;100.00
9784;BME280;4931;44.874;-1.092;2022-07-15T00:41:20;101620.72;;;22.79;100.00
9784;BME280;4931;44.874;-1.092;2022-07-15T00:46:06;101619.28;;;22.73;100.00
9784;BME280;4931;44.874;-1.092;2022-07-15T00:50:52;101626.81;;;22.60;100.00
9784;BME280;4931;44.874;-1.092;2022-07-15T00:55:44;101628.19;;;22.54;100.00
9784;BME280;4931;44.874;-1.092;2022-07-15T01:00:31;101612.63;;;22.44;100.00
9784;BME280;4931;44.874;-1.092;2022-07-15T01:05:18;101610.16;;;22.43;100.00
9784;BME280;4931;44.874;-1.092;2022-07-15T01:10:05;101605.66;;;22.29;100.00
9784;BME280;4931;44.874;-1.092;2022-07-15T01:14:53;101602.25;;;22.24;100.00
9784;BME280;4931;44.874;-1.092;2022-07-15T01:19:40;101603.75;;;22.21;100.00
9784;BME280;4931;44.874;-1.092;2022-07-15T01:24:29;101596.00;;;22.18;100.00
9784;BME280;4931;44.874;-1.092;2022-07-15T01:29:15;101589.00;;;22.12;100.00
9784;BME280;4931;44.874;-1.092;2022-07-15T01:34:01;101595.25;;;22.09;100.00
9784;BME280;4931;44.874;-1.092;2022-07-15T01:38:47;101594.16;;;22.01;100.00
9784;BME280;4931;44.874;-1.092;2022-07-15T01:43:56;101589.94;;;21.95;100.00
9784;BME280;4931;44.874;-1.092;2022-07-15T01:48:42;101595.53;;;21.95;100.00
9784;BME280;4931;44.874;-1.092;2022-07-15T01:53:40;101602.66;;;21.75;100.00
9784;BME280;4931;44.874;-1.092;2022-07-15T01:58:26;101596.81;;;21.67;100.00
9784;BME280;4931;44.874;-1.092;2022-07-15T02:03:15;101597.34;;;21.61;100.00
9784;BME280;4931;44.874;-1.092;2022-07-15T02:08:03;101602.56;;;21.62;100.00
9784;BME280;4931;44.874;-1.092;2022-07-15T02:12:56;101604.41;;;21.58;100.00
9784;BME280;4931;44.874;-1.092;2022-07-15T02:17:42;101616.38;;;21.59;100.00
9784;BME280;4931;44.874;-1.092;2022-07-15T02:22:31;101622.16;;;21.45;100.00
9784;BME280;4931;44.874;-1.092;2022-07-15T02:27:17;101612.31;;;21.38;100.00
9784;BME280;4931;44.874;-1.092;2022-07-15T02:32:04;101620.38;;;21.31;100.00
9784;BME280;4931;44.874;-1.092;2022-07-15T02:36:51;101614.00;;;21.22;100.00
9784;BME280;4931;44.874;-1.092;2022-07-15T02:41:39;101616.66;;;21.18;100.00
9784;BME280;4931;44.874;-1.092;2022-07-15T02:46:25;101602.22;;;21.08;100.00
9784;BME280;4931;44.874;-1.092;2022-07-15T02:51:11;101614.38;;;20.94;100.00
9784;BME280;4931;44.874;-1.092;2022-07-15T02:55:59;101617.81;;;21.00;100.00
9784;BME280;4931;44.874;-1.092;2022-07-15T03:00:48;101612.75;;;20.93;100.00
9784;BME280;4931;44.874;-1.092;2022-07-15T03:05:33;101617.84;;;20.82;100.00
9784;BME280;4931;44.874;-1.092;2022-07-15T03:10:21;101613.75;;;20.80;100.00
9784;BME280;4931;44.874;-1.092;2022-07-15T03:15:09;101609.81;;;20.81;100.00
9784;BME280;4931;44.874;-1.092;2022-07-15T03:19:58;101607.38;;;20.79;100.00
9784;BME280;4931;44.874;-1.092;2022-07-15T03:24:44;101607.66;;;20.86;100.00
9784;BME280;4931;44.874;-1.092;2022-07-15T03:29:31;101609.97;;;20.84;100.00
9784;BME280;4931;44.874;-1.092;2022-07-15T03:34:17;101602.94;;;20.78;100.00
9784;BME280;4931;44.874;-1.092;2022-07-15T03:39:06;101610.66;;;20.72;100.00
9784;BME280;4931;44.874;-1.092;2022-07-15T03:43:52;101608.50;;;20.69;100.00
9784;BME280;4931;44.874;-1.092;2022-07-15T03:48:39;101612.59;;;20.81;100.00
9784;BME280;4931;44.874;-1.092;2022-07-15T03:53:24;101617.00;;;20.64;100.00
9784;BME280;4931;44.874;-1.092;2022-07-15T03:58:13;101615.69;;;20.53;100.00
9784;BME280;4931;44.874;-1.092;2022-07-15T04:02:59;101613.25;;;20.51;100.00
9784;BME280;4931;44.874;-1.092;2022-07-15T04:07:45;101614.06;;;20.52;100.00
9784;BME280;4931;44.874;-1.092;2022-07-15T04:12:31;101619.63;;;20.34;100.00
9784;BME280;4931;44.874;-1.092;2022-07-15T04:17:27;101607.81;;;20.37;100.00
9784;BME280;4931;44.874;-1.092;2022-07-15T04:22:12;101612.56;;;20.28;100.00
9784;BME280;4931;44.874;-1.092;2022-07-15T04:26:59;101614.34;;;20.24;100.00
9784;BME280;4931;44.874;-1.092;2022-07-15T04:31:45;101616.47;;;20.27;100.00
9784;BME280;4931;44.874;-1.092;2022-07-15T04:36:34;101630.09;;;20.20;100.00
9784;BME280;4931;44.874;-1.092;2022-07-15T04:41:20;101630.91;;;20.29;100.00
9784;BME280;4931;44.874;-1.092;2022-07-15T04:46:06;101631.34;;;19.96;100.00
9784;BME280;4931;44.874;-1.092;2022-07-15T04:50:52;101627.91;;;19.99;100.00
9784;BME280;4931;44.874;-1.092;2022-07-15T04:55:42;101635.88;;;19.92;100.00
9784;BME280;4931;44.874;-1.092;2022-07-15T05:00:27;101639.84;;;19.91;100.00
9784;BME280;4931;44.874;-1.092;2022-07-15T05:05:13;101644.25;;;19.92;100.00
9784;BME280;4931;44.874;-1.092;2022-07-15T05:09:59;101650.78;;;19.87;100.00
9784;BME280;4931;44.874;-1.092;2022-07-15T05:14:47;101644.56;;;19.82;100.00
9784;BME280;4931;44.874;-1.092;2022-07-15T05:19:32;101643.38;;;19.83;100.00
9784;BME280;4931;44.874;-1.092;2022-07-15T05:24:21;101642.88;;;19.81;100.00
9784;BME280;4931;44.874;-1.092;2022-07-15T05:29:11;101647.69;;;19.89;100.00
9784;BME280;4931;44.874;-1.092;2022-07-15T05:33:59;101639.19;;;19.94;100.00
9784;BME280;4931;44.874;-1.092;2022-07-15T05:38:45;101640.91;;;20.39;100.00
9784;BME280;4931;44.874;-1.092;2022-07-15T05:43:31;101646.34;;;20.62;100.00
9784;BME280;4931;44.874;-1.092;2022-07-15T05:48:17;101649.16;;;20.70;100.00
9784;BME280;4931;44.874;-1.092;2022-07-15T05:53:05;101652.13;;;21.00;100.00
9784;BME280;4931;44.874;-1.092;2022-07-15T05:57:50;101646.16;;;21.28;100.00
9784;BME280;4931;44.874;-1.092;2022-07-15T06:02:36;101643.31;;;21.46;100.00
9784;BME280;4931;44.874;-1.092;2022-07-15T06:07:21;101651.44;;;21.77;100.00
9784;BME280;4931;44.874;-1.092;2022-07-15T06:12:09;101654.41;;;22.11;100.00
9784;BME280;4931;44.874;-1.092;2022-07-15T06:16:54;101655.13;;;22.29;100.00
9784;BME280;4931;44.874;-1.092;2022-07-15T06:21:40;101646.59;;;22.55;100.00
9784;BME280;4931;44.874;-1.092;2022-07-15T06:26:25;101653.88;;;22.68;100.00
9784;BME280;4931;44.874;-1.092;2022-07-15T06:31:13;101649.16;;;23.02;100.00
9784;BME280;4931;44.874;-1.092;2022-07-15T06:35:59;101648.34;;;23.35;98.99
9784;BME280;4931;44.874;-1.092;2022-07-15T06:40:46;101637.16;;;23.48;96.48
9784;BME280;4931;44.874;-1.092;2022-07-15T06:45:31;101634.63;;;23.67;96.09
9784;BME280;4931;44.874;-1.092;2022-07-15T06:50:19;101637.94;;;23.94;94.40
9784;BME280;4931;44.874;-1.092;2022-07-15T06:55:07;101636.97;;;24.15;93.54
9784;BME280;4931;44.874;-1.092;2022-07-15T06:59:54;101644.19;;;24.41;92.43
9784;BME280;4931;44.874;-1.092;2022-07-15T07:04:39;101640.63;;;24.81;88.74
9784;BME280;4931;44.874;-1.092;2022-07-15T07:09:27;101630.06;;;24.90;88.31
9784;BME280;4931;44.874;-1.092;2022-07-15T07:14:12;101645.19;;;25.01;87.31
9784;BME280;4931;44.874;-1.092;2022-07-15T07:18:57;101639.31;;;25.07;88.14
9784;BME280;4931;44.874;-1.092;2022-07-15T07:23:43;101642.22;;;25.10;87.52
9784;BME280;4931;44.874;-1.092;2022-07-15T07:28:31;101645.06;;;25.26;86.58
9784;BME280;4931;44.874;-1.092;2022-07-15T07:33:16;101636.13;;;25.84;82.64
9784;BME280;4931;44.874;-1.092;2022-07-15T07:38:01;101641.94;;;25.92;76.69
9784;BME280;4931;44.874;-1.092;2022-07-15T07:42:47;101629.19;;;26.30;77.15
9784;BME280;4931;44.874;-1.092;2022-07-15T07:47:36;101639.34;;;26.54;71.53
9784;BME280;4931;44.874;-1.092;2022-07-15T07:52:22;101627.41;;;26.96;68.82
9784;BME280;4931;44.874;-1.092;2022-07-15T07:57:09;101636.22;;;27.38;67.54
9784;BME280;4931;44.874;-1.092;2022-07-15T08:01:54;101630.53;;;27.57;64.95
9784;BME280;4931;44.874;-1.092;2022-07-15T08:06:42;101633.50;;;27.64;62.21
9784;BME280;4931;44.874;-1.092;2022-07-15T08:11:28;101634.63;;;27.87;61.40
9784;BME280;4931;44.874;-1.092;2022-07-15T08:16:13;101635.28;;;28.26;59.17
9784;BME280;4931;44.874;-1.092;2022-07-15T08:20:58;101639.56;;;28.47;58.40
9784;BME280;4931;44.874;-1.092;2022-07-15T08:25:49;101636.50;;;28.59;59.74
9784;BME280;4931;44.874;-1.092;2022-07-15T08:30:35;101624.13;;;29.02;57.66
9784;BME280;4931;44.874;-1.092;2022-07-15T08:35:20;101617.31;;;29.44;55.96
9784;BME280;4931;44.874;-1.092;2022-07-15T08:40:07;101610.97;;;29.61;54.42
9784;BME280;4931;44.874;-1.092;2022-07-15T08:44:55;101615.97;;;29.79;49.82
9784;BME280;4931;44.874;-1.092;2022-07-15T08:49:42;101605.66;;;30.05;50.16
9784;BME280;4931;44.874;-1.092;2022-07-15T08:54:29;101600.31;;;30.55;50.85
9784;BME280;4931;44.874;-1.092;2022-07-15T08:59:14;101596.78;;;30.94;48.89
9784;BME280;4931;44.874;-1.092;2022-07-15T09:04:02;101597.25;;;31.18;45.69
9784;BME280;4931;44.874;-1.092;2022-07-15T09:08:48;101597.28;;;31.33;45.09
9784;BME280;4931;44.874;-1.092;2022-07-15T09:13:34;101591.63;;;31.76;42.91
9784;BME280;4931;44.874;-1.092;2022-07-15T09:18:22;101591.59;;;31.90;40.88
9784;BME280;4931;44.874;-1.092;2022-07-15T09:23:13;101574.13;;;32.03;39.94
9784;BME280;4931;44.874;-1.092;2022-07-15T09:28:04;101569.22;;;32.32;39.78
9784;BME280;4931;44.874;-1.092;2022-07-15T09:32:50;101568.81;;;32.12;39.11
9784;BME280;4931;44.874;-1.092;2022-07-15T09:37:55;101570.44;;;32.13;39.69
9784;BME280;4931;44.874;-1.092;2022-07-15T09:43:01;101586.59;;;32.38;41.37
9784;BME280;4931;44.874;-1.092;2022-07-15T09:48:04;101586.47;;;32.70;38.64
9784;BME280;4931;44.874;-1.092;2022-07-15T09:52:50;101580.31;;;32.83;36.17
9784;BME280;4931;44.874;-1.092;2022-07-15T09:57:35;101576.81;;;33.20;35.05
9784;BME280;4931;44.874;-1.092;2022-07-15T10:02:23;101576.97;;;33.55;32.76
9784;BME280;4931;44.874;-1.092;2022-07-15T10:07:12;101561.53;;;33.56;32.94
9784;BME280;4931;44.874;-1.092;2022-07-15T10:12:16;101562.94;;;33.75;31.57
9784;BME280;4931;44.874;-1.092;2022-07-15T10:22:24;101572.72;;;33.74;32.33
9784;BME280;4931;44.874;-1.092;2022-07-15T10:27:34;101565.78;;;33.75;32.63
9784;BME280;4931;44.874;-1.092;2022-07-15T10:32:22;101566.09;;;34.22;30.74
9784;BME280;4931;44.874;-1.092;2022-07-15T10:37:08;101576.13;;;34.34;32.23
9784;BME280;4931;44.874;-1.092;2022-07-15T10:41:58;101576.03;;;34.45;30.27
9784;BME280;4931;44.874;-1.092;2022-07-15T10:46:44;101572.59;;;34.57;29.68
9784;BME280;4931;44.874;-1.092;2022-07-15T10:51:44;101578.56;;;34.98;30.30
9784;BME280;4931;44.874;-1.092;2022-07-15T10:56:31;101574.97;;;34.63;29.57
9784;BME280;4931;44.874;-1.092;2022-07-15T11:01:26;101570.41;;;34.69;27.45
9784;BME280;4931;44.874;-1.092;2022-07-15T11:06:12;101564.38;;;34.63;27.59
9784;BME280;4931;44.874;-1.092;2022-07-15T11:16:20;101559.56;;;34.56;26.57
9784;BME280;4931;44.874;-1.092;2022-07-15T11:21:08;101565.63;;;34.89;28.31
9784;BME280;4931;44.874;-1.092;2022-07-15T11:25:55;101558.28;;;35.16;26.78
9784;BME280;4931;44.874;-1.092;2022-07-15T11:30:42;101555.41;;;35.19;26.62
9784;BME280;4931;44.874;-1.092;2022-07-15T11:35:30;101552.97;;;35.18;26.47
9784;BME280;4931;44.874;-1.092;2022-07-15T11:40:18;101543.00;;;35.06;26.74
9784;BME280;4931;44.874;-1.092;2022-07-15T11:45:31;101547.69;;;35.44;26.57
9784;BME280;4931;44.874;-1.092;2022-07-15T11:50:17;101540.88;;;35.81;25.74
9784;BME280;4931;44.874;-1.092;2022-07-15T11:55:05;101528.84;;;35.94;23.17
9784;BME280;4931;44.874;-1.092;2022-07-15T11:59:55;101534.34;;;35.61;23.99
9784;BME280;4931;44.874;-1.092;2022-07-15T12:04:42;101537.69;;;35.99;23.63
9784;BME280;4931;44.874;-1.092;2022-07-15T12:09:38;101532.13;;;36.12;21.81
9784;BME280;4931;44.874;-1.092;2022-07-15T12:14:23;101521.88;;;36.35;22.40
9784;BME280;4931;44.874;-1.092;2022-07-15T12:19:13;101523.03;;;36.74;20.51
9784;BME280;4931;44.874;-1.092;2022-07-15T12:24:02;101516.75;;;36.63;20.64
9784;BME280;4931;44.874;-1.092;2022-07-15T12:28:53;101517.78;;;36.36;21.28
9784;BME280;4931;44.874;-1.092;2022-07-15T12:33:38;101514.72;;;36.06;21.73
9784;BME280;4931;44.874;-1.092;2022-07-15T12:38:30;101508.19;;;36.79;21.83
9784;BME280;4931;44.874;-1.092;2022-07-15T12:43:15;101497.00;;;37.05;20.20
9784;BME280;4931;44.874;-1.092;2022-07-15T12:48:03;101500.00;;;36.81;18.72
9784;BME280;4931;44.874;-1.092;2022-07-15T12:52:49;101495.16;;;36.78;20.13
9784;BME280;4931;44.874;-1.092;2022-07-15T12:57:37;101509.03;;;36.43;20.96
9784;BME280;4931;44.874;-1.092;2022-07-15T13:02:23;101495.03;;;36.85;22.22
9784;BME280;4931;44.874;-1.092;2022-07-15T13:07:09;101497.97;;;36.45;20.66
9784;BME280;4931;44.874;-1.092;2022-07-15T13:11:57;101495.50;;;36.47;20.84
9784;BME280;4931;44.874;-1.092;2022-07-15T13:16:47;101489.44;;;36.05;20.22
9784;BME280;4931;44.874;-1.092;2022-07-15T13:21:32;101489.88;;;35.83;20.58
9784;BME280;4931;44.874;-1.092;2022-07-15T13:26:18;101483.22;;;35.70;21.37
9784;BME280;4931;44.874;-1.092;2022-07-15T13:31:03;101486.75;;;35.34;21.27
9784;BME280;4931;44.874;-1.092;2022-07-15T13:35:51;101495.91;;;35.21;21.85
9784;BME280;4931;44.874;-1.092;2022-07-15T13:40:39;101489.97;;;35.36;21.08
9784;BME280;4931;44.874;-1.092;2022-07-15T13:45:25;101494.41;;;35.61;21.94
9784;BME280;4931;44.874;-1.092;2022-07-15T13:50:11;101495.28;;;35.57;22.63
9784;BME280;4931;44.874;-1.092;2022-07-15T13:55:11;101499.13;;;35.23;21.81
9784;BME280;4931;44.874;-1.092;2022-07-15T13:59:57;101491.22;;;35.35;22.25
9784;BME280;4931;44.874;-1.092;2022-07-15T14:04:42;101489.78;;;35.23;24.37
9784;BME280;4931;44.874;-1.092;2022-07-15T14:09:27;101478.66;;;35.29;22.48
9784;BME280;4931;44.874;-1.092;2022-07-15T14:14:16;101475.72;;;35.12;23.58
9784;BME280;4931;44.874;-1.092;2022-07-15T14:19:03;101489.72;;;35.03;25.53
9784;BME280;4931;44.874;-1.092;2022-07-15T14:23:50;101473.44;;;34.76;26.32
9784;BME280;4931;44.874;-1.092;2022-07-15T14:28:36;101470.09;;;34.81;25.61
9784;BME280;4931;44.874;-1.092;2022-07-15T14:33:24;101469.78;;;34.75;26.13
9784;BME280;4931;44.874;-1.092;2022-07-15T14:38:09;101460.81;;;34.77;25.79
9784;BME280;4931;44.874;-1.092;2022-07-15T14:43:02;101460.97;;;34.66;25.57
9784;BME280;4931;44.874;-1.092;2022-07-15T14:47:47;101459.53;;;34.82;26.82
9784;BME280;4931;44.874;-1.092;2022-07-15T14:52:35;101460.53;;;34.68;25.82
9784;BME280;4931;44.874;-1.092;2022-07-15T14:57:21;101455.69;;;34.41;26.78
9784;BME280;4931;44.874;-1.092;2022-07-15T15:02:07;101456.69;;;34.54;27.07
9784;BME280;4931;44.874;-1.092;2022-07-15T15:06:52;101452.06;;;34.37;28.64
9784;BME280;4931;44.874;-1.092;2022-07-15T15:11:41;101451.31;;;34.33;27.83
9784;BME280;4931;44.874;-1.092;2022-07-15T15:16:26;101449.50;;;34.15;28.11
9784;BME280;4931;44.874;-1.092;2022-07-15T15:21:31;101453.28;;;34.05;28.57
9784;BME280;4931;44.874;-1.092;2022-07-15T15:26:18;101447.34;;;33.92;29.08
9784;BME280;4931;44.874;-1.092;2022-07-15T15:31:10;101447.06;;;33.83;29.28
9784;BME280;4931;44.874;-1.092;2022-07-15T15:35:55;101451.19;;;33.78;28.63
9784;BME280;4931;44.874;-1.092;2022-07-15T15:40:41;101451.56;;;33.76;28.18
9784;BME280;4931;44.874;-1.092;2022-07-15T15:45:26;101456.81;;;33.47;27.94
9784;BME280;4931;44.874;-1.092;2022-07-15T15:50:14;101453.34;;;33.67;28.99
9784;BME280;4931;44.874;-1.092;2022-07-15T15:54:59;101445.19;;;33.69;25.18
9784;BME280;4931;44.874;-1.092;2022-07-15T15:59:45;101443.75;;;33.53;25.04
9784;BME280;4931;44.874;-1.092;2022-07-15T16:04:30;101425.22;;;33.38;24.32
9784;BME280;4931;44.874;-1.092;2022-07-15T16:09:39;101430.44;;;33.43;24.69
9784;BME280;4931;44.874;-1.092;2022-07-15T16:14:24;101431.81;;;33.66;23.13
9784;BME280;4931;44.874;-1.092;2022-07-15T16:19:10;101437.44;;;33.35;22.62
9784;BME280;4931;44.874;-1.092;2022-07-15T16:23:55;101433.63;;;33.07;23.38
9784;BME280;4931;44.874;-1.092;2022-07-15T16:28:44;101423.38;;;33.17;22.68
9784;BME280;4931;44.874;-1.092;2022-07-15T16:33:29;101432.94;;;32.96;24.12
9784;BME280;4931;44.874;-1.092;2022-07-15T16:38:14;101436.34;;;32.76;24.27
9784;BME280;4931;44.874;-1.092;2022-07-15T16:42:59;101429.03;;;32.75;24.86
9784;BME280;4931;44.874;-1.092;2022-07-15T16:47:48;101425.06;;;32.61;25.35
9784;BME280;4931;44.874;-1.092;2022-07-15T16:52:33;101424.97;;;32.76;26.79
9784;BME280;4931;44.874;-1.092;2022-07-15T16:57:18;101416.09;;;32.67;26.97
9784;BME280;4931;44.874;-1.092;2022-07-15T17:02:04;101412.75;;;32.79;26.88
9784;BME280;4931;44.874;-1.092;2022-07-15T17:06:52;101407.81;;;32.34;27.00
9784;BME280;4931;44.874;-1.092;2022-07-15T17:11:37;101405.72;;;32.46;27.26
9784;BME280;4931;44.874;-1.092;2022-07-15T17:16:22;101404.50;;;32.47;26.61
9784;BME280;4931;44.874;-1.092;2022-07-15T17:21:08;101399.31;;;32.31;26.76
9784;BME280;4931;44.874;-1.092;2022-07-15T17:25:57;101400.31;;;31.95;28.15
9784;BME280;4931;44.874;-1.092;2022-07-15T17:30:42;101394.19;;;32.00;28.43
9784;BME280;4931;44.874;-1.092;2022-07-15T17:35:28;101393.50;;;31.78;29.57
9784;BME280;4931;44.874;-1.092;2022-07-15T17:40:13;101397.88;;;32.01;29.21
9784;BME280;4931;44.874;-1.092;2022-07-15T17:45:01;101391.44;;;31.82;29.67
9784;BME280;4931;44.874;-1.092;2022-07-15T17:49:46;101385.78;;;31.82;30.02
9784;BME280;4931;44.874;-1.092;2022-07-15T17:54:32;101383.47;;;31.63;30.08
9784;BME280;4931;44.874;-1.092;2022-07-15T17:59:18;101389.91;;;31.59;30.72
9784;BME280;4931;44.874;-1.092;2022-07-15T18:04:06;101398.88;;;31.51;31.33
9784;BME280;4931;44.874;-1.092;2022-07-15T18:08:51;101399.66;;;31.44;32.23
9784;BME280;4931;44.874;-1.092;2022-07-15T18:13:36;101406.59;;;31.36;31.27
9784;BME280;4931;44.874;-1.092;2022-07-15T18:18:21;101423.22;;;31.19;31.29
9784;BME280;4931;44.874;-1.092;2022-07-15T18:23:09;101415.91;;;31.29;30.44
9784;BME280;4931;44.874;-1.092;2022-07-15T18:27:55;101417.56;;;31.19;30.81
9784;BME280;4931;44.874;-1.092;2022-07-15T18:32:40;101424.47;;;31.07;31.60
9784;BME280;4931;44.874;-1.092;2022-07-15T18:37:25;101433.75;;;30.97;32.68
9784;BME280;4931;44.874;-1.092;2022-07-15T18:42:13;101429.69;;;30.87;32.91
9784;BME280;4931;44.874;-1.092;2022-07-15T18:46:59;101440.63;;;30.85;31.95
9784;BME280;4931;44.874;-1.092;2022-07-15T18:51:44;101441.81;;;30.70;32.63
9784;BME280;4931;44.874;-1.092;2022-07-15T18:56:29;101435.72;;;30.53;33.81
9784;BME280;4931;44.874;-1.092;2022-07-15T19:01:17;101440.91;;;30.26;34.48
9784;BME280;4931;44.874;-1.092;2022-07-15T19:06:03;101444.06;;;30.10;34.67
9784;BME280;4931;44.874;-1.092;2022-07-15T19:10:48;101443.66;;;29.97;34.92
9784;BME280;4931;44.874;-1.092;2022-07-15T19:15:33;101443.53;;;29.79;35.49
9784;BME280;4931;44.874;-1.092;2022-07-15T19:20:22;101458.25;;;29.40;38.06
9784;BME280;4931;44.874;-1.092;2022-07-15T19:25:08;101455.78;;;29.35;39.00
9784;BME280;4931;44.874;-1.092;2022-07-15T19:29:54;101454.03;;;29.19;39.32
9784;BME280;4931;44.874;-1.092;2022-07-15T19:34:39;101450.94;;;28.83;41.52
9784;BME280;4931;44.874;-1.092;2022-07-15T19:39:28;101448.56;;;28.51;44.02
9784;BME280;4931;44.874;-1.092;2022-07-15T19:44:13;101454.56;;;28.46;43.84
9784;BME280;4931;44.874;-1.092;2022-07-15T19:48:58;101460.25;;;28.12;45.95
9784;BME280;4931;44.874;-1.092;2022-07-15T19:53:44;101459.88;;;27.87;46.81
9784;BME280;4931;44.874;-1.092;2022-07-15T19:58:32;101464.25;;;28.11;46.16
9784;BME280;4931;44.874;-1.092;2022-07-15T20:03:17;101472.03;;;28.21;46.85
9784;BME280;4931;44.874;-1.092;2022-07-15T20:08:04;101474.06;;;28.24;48.18
9784;BME280;4931;44.874;-1.092;2022-07-15T20:12:50;101475.59;;;28.18;47.46
9784;BME280;4931;44.874;-1.092;2022-07-15T20:17:38;101480.94;;;27.96;46.50
9784;BME280;4931;44.874;-1.092;2022-07-15T20:22:23;101476.63;;;27.76;44.95
9784;BME280;4931;44.874;-1.092;2022-07-15T20:27:08;101477.06;;;27.47;46.58
9784;BME280;4931;44.874;-1.092;2022-07-15T20:31:54;101484.81;;;27.31;47.17
9784;BME280;4931;44.874;-1.092;2022-07-15T20:36:42;101493.13;;;27.47;46.34
9784;BME280;4931;44.874;-1.092;2022-07-15T20:41:31;101502.19;;;27.37;47.51
9784;BME280;4931;44.874;-1.092;2022-07-15T20:46:16;101505.59;;;26.99;53.75
9784;BME280;4931;44.874;-1.092;2022-07-15T20:51:02;101513.78;;;26.65;56.65
9784;BME280;4931;44.874;-1.092;2022-07-15T20:55:51;101514.94;;;26.41;57.25
9784;BME280;4931;44.874;-1.092;2022-07-15T21:00:36;101515.47;;;26.47;53.90
9784;BME280;4931;44.874;-1.092;2022-07-15T21:05:22;101518.28;;;26.27;55.45
9784;BME280;4931;44.874;-1.092;2022-07-15T21:10:07;101517.09;;;26.09;57.42
9784;BME280;4931;44.874;-1.092;2022-07-15T21:14:56;101511.25;;;26.01;56.98
9784;BME280;4931;44.874;-1.092;2022-07-15T21:19:41;101507.28;;;26.02;54.15
9784;BME280;4931;44.874;-1.092;2022-07-15T21:24:26;101509.63;;;25.81;55.50
9784;BME280;4931;44.874;-1.092;2022-07-15T21:29:24;101497.59;;;25.64;56.15
9784;BME280;4931;44.874;-1.092;2022-07-15T21:34:12;101496.47;;;25.49;56.55
9784;BME280;4931;44.874;-1.092;2022-07-15T21:38:57;101503.25;;;25.48;56.15
9784;BME280;4931;44.874;-1.092;2022-07-15T21:43:42;101498.72;;;25.44;55.80
9784;BME280;4931;44.874;-1.092;2022-07-15T21:48:27;101489.84;;;25.42;55.64
9784;BME280;4931;44.874;-1.092;2022-07-15T21:53:17;101492.19;;;25.40;55.17
9784;BME280;4931;44.874;-1.092;2022-07-15T21:58:02;101489.66;;;25.34;54.72
9784;BME280;4931;44.874;-1.092;2022-07-15T22:02:48;101491.13;;;25.28;55.63
9784;BME280;4931;44.874;-1.092;2022-07-15T22:07:33;101486.75;;;25.15;55.99
9784;BME280;4931;44.874;-1.092;2022-07-15T22:12:21;101483.69;;;25.20;55.80
9784;BME280;4931;44.874;-1.092;2022-07-15T22:17:07;101484.88;;;25.19;56.19
9784;BME280;4931;44.874;-1.092;2022-07-15T22:21:52;101477.00;;;25.09;57.51
9784;BME280;4931;44.874;-1.092;2022-07-15T22:26:38;101485.69;;;25.03;58.23
9784;BME280;4931;44.874;-1.092;2022-07-15T22:31:26;101486.22;;;24.93;59.08
9784;BME280;4931;44.874;-1.092;2022-07-15T22:36:11;101483.78;;;24.76;61.32
9784;BME280;4931;44.874;-1.092;2022-07-15T22:40:58;101486.63;;;24.63;62.56
9784;BME280;4931;44.874;-1.092;2022-07-15T22:45:44;101483.63;;;24.56;63.84
9784;BME280;4931;44.874;-1.092;2022-07-15T22:50:32;101481.31;;;24.46;65.17
9784;BME280;4931;44.874;-1.092;2022-07-15T22:55:17;101489.09;;;24.36;66.12
9784;BME280;4931;44.874;-1.092;2022-07-15T23:00:04;101489.63;;;24.42;66.13
9784;BME280;4931;44.874;-1.092;2022-07-15T23:04:50;101492.06;;;24.44;66.69
9784;BME280;4931;44.874;-1.092;2022-07-15T23:09:38;101489.34;;;24.31;67.80
9784;BME280;4931;44.874;-1.092;2022-07-15T23:14:23;101486.78;;;24.26;68.51
9784;BME280;4931;44.874;-1.092;2022-07-15T23:19:16;101489.41;;;24.07;70.56
9784;BME280;4931;44.874;-1.092;2022-07-15T23:24:01;101474.50;;;24.02;71.44
9784;BME280;4931;44.874;-1.092;2022-07-15T23:28:49;101487.78;;;24.06;72.28
9784;BME280;4931;44.874;-1.092;2022-07-15T23:33:35;101486.41;;;23.87;74.00
9784;BME280;4931;44.874;-1.092;2022-07-15T23:38:20;101483.03;;;23.81;74.98
9784;BME280;4931;44.874;-1.092;2022-07-15T23:43:06;101479.91;;;23.58;77.69
9784;BME280;4931;44.874;-1.092;2022-07-15T23:47:56;101464.41;;;23.36;80.95
9784;BME280;4931;44.874;-1.092;2022-07-15T23:52:42;101471.53;;;23.21;82.67
9784;BME280;4931;44.874;-1.092;2022-07-15T23:57:27;101467.88;;;23.08;84.55
